Time;durP1;ratioP1;P1;durP2;ratioP2;P2;SDS_P1;SDS_P2;PMS_P1;PMS_P2;Temp;Humidity;BMP_temperature;BMP_pressure;BME280_temperature;BME280_humidity;BME280_pressure;Samples;Min_cycle;Max_cycle;Signal;HPM_P1;HPM_P2
2022/12/18 00:00:47;;;;;;;145.52;36.63;;;-3.20;42.50;;;;;;5096881;28;20138;-81
2022/12/18 00:03:14;;;;;;;140.40;34.92;;;-3.20;39.60;;;;;;5110116;27;20563;-82
2022/12/18 00:05:50;;;;;;;126.68;34.22;;;-3.20;38.50;;;;;;5112958;27;20043;-80
2022/12/18 00:08:17;;;;;;;122.63;34.47;;;-3.30;36.90;;;;;;5112577;27;20480;-80
2022/12/18 00:10:43;;;;;;;126.22;35.53;;;-3.30;33.40;;;;;;5102601;28;20062;-81
2022/12/18 00:13:09;;;;;;;126.47;35.72;;;-3.40;34.80;;;;;;5076509;27;20046;-81
2022/12/18 00:15:36;;;;;;;120.00;32.92;;;-3.40;26.90;;;;;;5099939;28;20039;-80
2022/12/18 00:18:02;;;;;;;131.32;33.25;;;-3.50;24.00;;;;;;5114094;27;20054;-81
2022/12/18 00:20:27;;;;;;;112.03;32.17;;;-3.50;19.90;;;;;;5102990;28;20051;-81
2022/12/18 00:22:53;;;;;;;124.10;34.03;;;-3.50;18.50;;;;;;5107007;27;20484;-81
2022/12/18 00:25:19;;;;;;;126.47;32.90;;;-3.60;16.90;;;;;;5100258;28;20051;-85
2022/12/18 00:27:45;;;;;;;120.63;33.38;;;-3.60;13.20;;;;;;5106439;28;20401;-81
2022/12/18 00:30:11;;;;;;;122.82;32.92;;;-3.60;8.60;;;;;;5083173;28;20093;-82
2022/12/18 00:32:37;;;;;;;119.60;32.38;;;-3.60;13.00;;;;;;5115472;27;20392;-81
2022/12/18 00:35:03;;;;;;;126.25;33.53;;;-3.60;9.70;;;;;;5119895;27;20047;-82
2022/12/18 00:37:29;;;;;;;130.65;33.95;;;-3.70;8.90;;;;;;5091091;28;20486;-81
2022/12/18 00:39:55;;;;;;;138.73;35.72;;;-3.80;4.10;;;;;;5117560;27;20048;-81
2022/12/18 00:45:05;;;;;;;135.93;35.20;;;-3.90;3.40;;;;;;5110078;28;20051;-81
2022/12/18 00:47:31;;;;;;;124.90;32.88;;;-3.80;6.80;;;;;;5092251;28;20094;-82
2022/12/18 00:49:56;;;;;;;131.77;35.33;;;-3.90;7.80;;;;;;5118099;27;20120;-81
2022/12/18 00:52:22;;;;;;;129.70;36.88;;;-3.80;11.50;;;;;;5109471;27;20154;-86
2022/12/18 00:54:48;;;;;;;134.48;35.78;;;-3.80;15.80;;;;;;5112089;28;20058;-83
2022/12/18 00:57:13;;;;;;;120.95;35.42;;;-3.70;17.30;;;;;;5090994;28;20058;-82
2022/12/18 00:59:39;;;;;;;133.25;36.10;;;-3.70;15.60;;;;;;5103934;28;20055;-81
2022/12/18 01:02:04;;;;;;;120.68;32.00;;;-3.80;11.90;;;;;;5089635;28;20521;-81
2022/12/18 01:04:34;;;;;;;133.20;35.05;;;-3.80;3.80;;;;;;5109331;28;20138;-83
2022/12/18 01:06:59;;;;;;;128.07;32.22;;;-3.90;2.80;;;;;;5094862;28;20043;-83
2022/12/18 01:09:25;;;;;;;115.28;35.78;;;-3.90;2.70;;;;;;5111951;28;20478;-84
2022/12/18 01:11:51;;;;;;;122.13;32.67;;;-3.90;6.40;;;;;;5115675;28;20042;-81
2022/12/18 01:14:17;;;;;;;122.38;34.63;;;-4.00;3.30;;;;;;5117815;28;20051;-84
2022/12/18 01:16:43;;;;;;;117.55;33.92;;;-4.00;3.20;;;;;;5081627;28;20043;-81
2022/12/18 01:19:09;;;;;;;127.63;34.25;;;-4.00;4.30;;;;;;5109165;27;20047;-86
2022/12/18 01:21:35;;;;;;;129.52;35.22;;;-4.00;3.70;;;;;;5111901;28;20043;-81
2022/12/18 01:24:00;;;;;;;125.53;35.45;;;-4.00;4.60;;;;;;5106683;28;20051;-84
2022/12/18 01:26:29;;;;;;;126.93;35.25;;;-4.00;3.60;;;;;;5112196;28;20127;-85
2022/12/18 01:28:56;;;;;;;132.25;35.58;;;-4.10;1.40;;;;;;5110148;27;20407;-81
2022/12/18 01:31:28;;;;;;;136.02;35.35;;;-4.10;1.00;;;;;;5116509;27;20477;-81
2022/12/18 01:33:54;;;;;;;129.48;35.85;;;-4.10;1.00;;;;;;5113726;27;20036;-81
2022/12/18 01:36:31;;;;;;;135.82;35.67;;;-4.20;1.00;;;;;;5133826;27;20125;-81
2022/12/18 01:39:01;;;;;;;124.40;34.47;;;-4.30;1.00;;;;;;5110132;28;20108;-81
2022/12/18 01:42:01;;;;;;;136.93;36.03;;;-4.30;1.00;;;;;;5119223;27;20039;-81
2022/12/18 01:44:55;;;;;;;147.13;39.22;;;-4.40;1.00;;;;;;5113193;27;20480;-81
2022/12/18 01:47:47;;;;;;;131.80;35.83;;;-4.40;1.00;;;;;;5130565;27;20061;-82
2022/12/18 01:50:35;;;;;;;125.65;36.65;;;-4.50;1.00;;;;;;5130538;27;20048;-81
2022/12/18 01:53:18;;;;;;;140.43;35.85;;;-4.50;1.00;;;;;;5113658;27;20043;-82
2022/12/18 01:55:50;;;;;;;127.72;36.13;;;-4.50;1.00;;;;;;5104503;27;20556;-82
2022/12/18 01:58:18;;;;;;;140.52;39.13;;;-4.50;1.00;;;;;;5132326;27;20464;-82
2022/12/18 02:00:44;;;;;;;138.20;37.45;;;-4.40;1.00;;;;;;5132831;27;20075;-81
2022/12/18 02:03:10;;;;;;;143.57;40.95;;;-4.40;1.00;;;;;;5116513;27;20066;-81
2022/12/18 02:05:36;;;;;;;149.75;42.55;;;-4.40;1.00;;;;;;5115459;27;20050;-81
2022/12/18 02:08:27;;;;;;;141.07;40.03;;;-4.50;1.00;;;;;;5116311;27;20046;-82
2022/12/18 02:11:34;;;;;;;140.55;39.55;;;-4.60;1.00;;;;;;5102206;27;20056;-82
2022/12/18 02:14:36;;;;;;;145.30;39.55;;;-4.70;1.00;;;;;;5095403;28;20051;-83
2022/12/18 02:17:42;;;;;;;143.88;40.35;;;-4.80;1.00;;;;;;5124781;27;20055;-82
2022/12/18 02:20:17;;;;;;;140.13;39.20;;;-4.80;1.00;;;;;;5035038;28;20058;-82
2022/12/18 02:23:15;;;;;;;145.77;40.25;;;-4.90;1.00;;;;;;5108684;27;20046;-82
2022/12/18 02:26:14;;;;;;;143.48;40.13;;;-4.90;1.00;;;;;;5120886;27;20126;-82
2022/12/18 02:29:05;;;;;;;145.10;40.28;;;-5.00;1.00;;;;;;5113353;27;20059;-82
2022/12/18 02:31:42;;;;;;;125.68;37.30;;;-5.00;1.00;;;;;;5085788;28;20531;-82
2022/12/18 02:34:09;;;;;;;142.00;40.53;;;-5.00;1.00;;;;;;5117135;27;20035;-82
2022/12/18 02:36:38;;;;;;;149.13;40.15;;;-5.10;1.00;;;;;;5115278;27;20050;-85
2022/12/18 02:39:06;;;;;;;141.52;42.25;;;-5.10;1.00;;;;;;5139773;27;20031;-81
2022/12/18 02:41:32;;;;;;;146.88;38.90;;;-5.10;1.00;;;;;;5120278;27;20112;-82
2022/12/18 02:44:01;;;;;;;153.45;40.58;;;-5.20;1.00;;;;;;5109832;27;20061;-82
2022/12/18 02:46:37;;;;;;;158.57;40.90;;;-5.20;1.00;;;;;;5134173;27;20497;-81
2022/12/18 02:49:28;;;;;;;141.32;42.92;;;-5.20;1.00;;;;;;5106618;28;20063;-83
2022/12/18 02:52:15;;;;;;;143.82;38.67;;;-5.30;1.00;;;;;;5105635;28;20040;-82
2022/12/18 02:54:55;;;;;;;125.93;39.47;;;-5.30;1.00;;;;;;5125863;27;20075;-81
2022/12/18 02:57:44;;;;;;;146.85;40.78;;;-5.30;1.00;;;;;;5104564;28;20051;-82
2022/12/18 03:00:36;;;;;;;129.45;38.63;;;-5.40;1.00;;;;;;5098711;27;20059;-82
2022/12/18 03:03:25;;;;;;;144.15;37.00;;;-5.40;1.00;;;;;;5099357;27;20051;-82
2022/12/18 03:05:59;;;;;;;146.93;39.85;;;-5.40;1.00;;;;;;5101107;27;20051;-83
2022/12/18 03:08:29;;;;;;;129.95;39.03;;;-5.40;1.00;;;;;;5107768;27;20047;-82
2022/12/18 03:11:10;;;;;;;131.55;37.63;;;-5.40;1.00;;;;;;5128093;27;20058;-81
2022/12/18 03:13:46;;;;;;;115.82;36.05;;;-5.50;1.00;;;;;;5132917;27;20050;-82
2022/12/18 03:16:16;;;;;;;132.25;38.10;;;-5.50;1.00;;;;;;5113059;27;20553;-81
2022/12/18 03:18:47;;;;;;;129.10;36.40;;;-5.40;1.00;;;;;;5121580;27;20067;-85
2022/12/18 03:21:14;;;;;;;127.75;37.75;;;-5.50;1.00;;;;;;5125251;27;20582;-82
2022/12/18 03:23:44;;;;;;;117.32;37.38;;;-5.50;1.00;;;;;;5110225;27;20051;-82
2022/12/18 03:26:14;;;;;;;125.18;38.35;;;-5.50;1.00;;;;;;5131647;27;20047;-82
2022/12/18 03:28:45;;;;;;;117.05;34.13;;;-5.60;1.00;;;;;;5123551;27;20078;-82
2022/12/18 03:31:13;;;;;;;127.80;37.72;;;-5.60;1.00;;;;;;5114247;27;20506;-82
2022/12/18 03:33:53;;;;;;;115.20;36.58;;;-5.60;1.00;;;;;;5114440;27;20430;-80
2022/12/18 03:36:19;;;;;;;128.93;37.90;;;-5.60;1.00;;;;;;5118626;27;20487;-82
2022/12/18 03:38:45;;;;;;;133.35;36.60;;;-5.60;1.00;;;;;;5084148;28;20082;-82
2022/12/18 03:41:32;;;;;;;125.40;38.95;;;-5.60;1.00;;;;;;5113987;27;20035;-82
2022/12/18 03:44:29;;;;;;;122.82;36.80;;;-5.70;1.00;;;;;;5114461;27;20047;-82
2022/12/18 03:46:58;;;;;;;121.30;35.47;;;-5.70;1.00;;;;;;5131580;27;20144;-82
2022/12/18 03:49:42;;;;;;;106.18;33.85;;;-5.70;1.00;;;;;;5114430;27;20066;-82
2022/12/18 03:52:18;;;;;;;114.40;35.65;;;-5.70;1.00;;;;;;5130904;27;20396;-83
2022/12/18 03:54:45;;;;;;;112.20;34.90;;;-5.70;1.00;;;;;;5129779;27;20118;-82
2022/12/18 03:57:18;;;;;;;121.80;34.10;;;-5.70;1.00;;;;;;5113971;27;20527;-82
2022/12/18 03:59:47;;;;;;;112.68;35.33;;;-5.70;1.00;;;;;;5127738;27;20043;-81
2022/12/18 04:02:15;;;;;;;110.95;34.95;;;-5.80;1.00;;;;;;5122248;27;20465;-82
2022/12/18 04:04:42;;;;;;;109.25;34.78;;;-5.70;1.00;;;;;;5130948;27;20484;-82
2022/12/18 04:07:09;;;;;;;95.78;32.30;;;-5.70;1.00;;;;;;5131376;27;20084;-82
2022/12/18 04:09:36;;;;;;;107.40;33.88;;;-5.70;1.00;;;;;;5099050;27;20051;-81
2022/12/18 04:12:02;;;;;;;96.80;31.02;;;-5.80;1.00;;;;;;5119416;27;20055;-82
2022/12/18 04:14:28;;;;;;;105.50;32.28;;;-5.80;1.00;;;;;;5115222;27;20179;-83
2022/12/18 04:16:53;;;;;;;100.18;32.08;;;-5.70;1.00;;;;;;5093373;28;20138;-82
2022/12/18 04:19:19;;;;;;;101.65;31.70;;;-5.80;1.00;;;;;;5129294;27;20035;-82
2022/12/18 04:21:45;;;;;;;100.95;32.45;;;-5.70;1.00;;;;;;5118276;27;20173;-82
2022/12/18 04:24:10;;;;;;;96.20;31.60;;;-5.80;1.00;;;;;;5094159;28;20052;-82
2022/12/18 04:26:36;;;;;;;91.68;30.45;;;-5.80;1.00;;;;;;5096726;27;20052;-81
2022/12/18 04:29:02;;;;;;;94.68;30.73;;;-5.80;1.00;;;;;;5097232;28;20693;-82
2022/12/18 04:31:28;;;;;;;91.55;29.48;;;-5.80;1.00;;;;;;5117638;27;20051;-82
2022/12/18 04:33:54;;;;;;;90.50;31.40;;;-5.80;1.00;;;;;;5085197;28;20050;-82
2022/12/18 04:36:19;;;;;;;79.90;31.00;;;-5.80;1.00;;;;;;5104251;27;20478;-81
2022/12/18 04:38:45;;;;;;;89.72;30.30;;;-5.90;1.00;;;;;;5099720;27;20077;-82
2022/12/18 04:41:10;;;;;;;86.32;30.45;;;-5.90;1.00;;;;;;5091650;28;20047;-81
2022/12/18 04:43:37;;;;;;;80.65;28.48;;;-5.90;1.00;;;;;;5090576;28;20036;-82
2022/12/18 04:46:05;;;;;;;84.45;27.95;;;-5.90;1.00;;;;;;5083352;28;20062;-82
2022/12/18 04:48:30;;;;;;;80.60;29.15;;;-5.90;1.00;;;;;;5106753;28;20062;-82
2022/12/18 04:50:56;;;;;;;82.38;30.95;;;-5.90;1.00;;;;;;5100698;28;20069;-83
2022/12/18 04:53:22;;;;;;;81.57;28.35;;;-6.00;1.00;;;;;;5093862;27;20093;-82
2022/12/18 04:55:48;;;;;;;79.68;28.08;;;-6.00;1.00;;;;;;5127595;27;20481;-82
2022/12/18 04:58:13;;;;;;;74.53;27.58;;;-5.80;1.00;;;;;;5082146;28;20048;-82
2022/12/18 05:00:40;;;;;;;72.93;27.05;;;-6.00;1.00;;;;;;5093176;28;20047;-82
2022/12/18 05:03:06;;;;;;;83.85;28.23;;;-6.00;1.00;;;;;;5074369;28;20473;-82
2022/12/18 05:05:33;;;;;;;84.05;28.40;;;-6.00;1.00;;;;;;5089390;28;20055;-82
2022/12/18 05:07:59;;;;;;;78.20;27.60;;;-6.00;1.00;;;;;;5070981;28;20036;-82
2022/12/18 05:10:25;;;;;;;72.00;27.55;;;-6.00;1.00;;;;;;5092759;28;20051;-82
2022/12/18 05:12:59;;;;;;;72.50;26.70;;;-6.00;1.00;;;;;;5075262;28;20110;-82
2022/12/18 05:15:32;;;;;;;71.03;27.30;;;-6.10;1.00;;;;;;5074141;28;20086;-82
2022/12/18 05:17:59;;;;;;;74.50;27.42;;;-6.10;1.00;;;;;;5096220;28;20128;-82
2022/12/18 05:20:26;;;;;;;67.03;27.65;;;-6.10;1.00;;;;;;5075166;28;20673;-83
2022/12/18 05:22:52;;;;;;;76.25;26.25;;;-6.10;1.00;;;;;;5072695;28;20144;-82
2022/12/18 05:25:19;;;;;;;69.43;25.23;;;-6.10;1.00;;;;;;5085927;28;20097;-81
2022/12/18 05:27:45;;;;;;;67.97;25.90;;;-6.20;1.00;;;;;;5088416;28;20035;-81
2022/12/18 05:30:12;;;;;;;71.93;26.40;;;-6.20;1.00;;;;;;5084646;28;20067;-82
2022/12/18 05:32:37;;;;;;;67.50;25.17;;;-6.30;1.00;;;;;;5070553;28;20564;-82
2022/12/18 05:35:07;;;;;;;67.68;25.77;;;-6.30;1.00;;;;;;5065129;28;20132;-82
2022/12/18 05:37:33;;;;;;;69.85;25.80;;;-6.30;1.00;;;;;;5079857;28;20057;-83
2022/12/18 05:39:59;;;;;;;63.22;26.85;;;-6.30;1.00;;;;;;5108408;28;20126;-85
2022/12/18 05:42:24;;;;;;;68.82;26.15;;;-6.40;1.00;;;;;;5101894;28;20032;-82
2022/12/18 05:44:50;;;;;;;70.50;25.85;;;-6.40;1.00;;;;;;5103639;28;20058;-81
2022/12/18 05:47:16;;;;;;;76.45;26.50;;;-6.50;1.00;;;;;;5089042;28;20101;-82
2022/12/18 05:49:42;;;;;;;76.78;27.60;;;-6.50;1.00;;;;;;5070128;28;20062;-82
2022/12/18 05:52:08;;;;;;;80.32;27.58;;;-6.60;1.00;;;;;;5101131;28;20036;-82
2022/12/18 05:54:34;;;;;;;74.25;26.05;;;-6.60;1.00;;;;;;5103736;28;20068;-82
2022/12/18 05:57:00;;;;;;;80.20;26.42;;;-6.60;1.00;;;;;;5113646;28;20050;-86
2022/12/18 05:59:25;;;;;;;73.50;26.13;;;-6.70;99.90;;;;;;5110280;27;20458;-82
2022/12/18 06:01:51;;;;;;;70.05;25.20;;;-6.70;99.90;;;;;;5124613;27;20097;-81
2022/12/18 06:04:17;;;;;;;76.70;26.00;;;-6.70;1.00;;;;;;5121534;27;20463;-82
2022/12/18 06:06:42;;;;;;;69.53;25.65;;;-6.70;99.90;;;;;;5096377;28;20100;-82
2022/12/18 06:09:09;;;;;;;63.08;25.70;;;-6.70;99.90;;;;;;5094029;27;20149;-82
2022/12/18 06:11:38;;;;;;;75.35;25.65;;;-6.70;99.90;;;;;;5083041;27;20129;-82
2022/12/18 06:14:05;;;;;;;64.53;23.65;;;-6.70;99.90;;;;;;5119817;27;20043;-82
2022/12/18 06:16:31;;;;;;;62.20;23.67;;;-6.70;99.90;;;;;;5132577;27;20054;-82
2022/12/18 06:19:01;;;;;;;63.50;24.42;;;-6.70;99.90;;;;;;5115906;27;20046;-82
2022/12/18 06:21:28;;;;;;;63.30;25.67;;;-6.80;99.90;;;;;;5132840;27;20065;-83
2022/12/18 06:23:54;;;;;;;68.63;23.80;;;-6.80;99.90;;;;;;5098181;28;20039;-82
2022/12/18 06:26:19;;;;;;;63.85;24.65;;;-6.80;99.90;;;;;;5099059;27;20049;-82
2022/12/18 06:28:45;;;;;;;63.42;24.38;;;-6.90;99.90;;;;;;5128846;27;20135;-82
2022/12/18 06:31:11;;;;;;;63.67;24.63;;;-6.90;99.90;;;;;;5125469;27;20047;-82
2022/12/18 06:33:38;;;;;;;75.65;25.17;;;-7.00;99.90;;;;;;5127618;27;20043;-82
2022/12/18 06:36:12;;;;;;;56.42;23.55;;;-7.00;99.90;;;;;;5125577;27;20105;-82
2022/12/18 06:38:41;;;;;;;64.35;24.63;;;-7.00;99.90;;;;;;5110257;27;21011;-82
2022/12/18 06:41:11;;;;;;;61.58;22.55;;;-7.10;99.90;;;;;;5114363;27;20078;-85
2022/12/18 06:43:37;;;;;;;63.17;23.45;;;-7.00;99.90;;;;;;5103581;27;20039;-83
2022/12/18 06:46:04;;;;;;;59.08;21.90;;;-7.10;99.90;;;;;;5105339;28;20043;-82
2022/12/18 06:48:30;;;;;;;65.70;23.90;;;-7.10;99.90;;;;;;5092127;28;20131;-83
2022/12/18 06:50:57;;;;;;;60.03;22.83;;;-7.10;99.90;;;;;;5125754;27;20043;-82
2022/12/18 06:53:22;;;;;;;65.90;24.35;;;-7.10;99.90;;;;;;5117911;28;20126;-83
2022/12/18 06:55:48;;;;;;;60.03;23.65;;;-7.10;99.90;;;;;;5102767;28;20085;-82
2022/12/18 06:58:14;;;;;;;62.03;24.02;;;-7.10;99.90;;;;;;5113067;28;20105;-82
2022/12/18 07:00:40;;;;;;;64.93;23.50;;;-7.20;99.90;;;;;;5098280;28;20047;-83
2022/12/18 07:03:06;;;;;;;62.53;23.02;;;-7.20;99.90;;;;;;5131369;27;20050;-82
2022/12/18 07:05:32;;;;;;;63.05;22.90;;;-7.20;99.90;;;;;;5131931;27;20054;-84
2022/12/18 07:07:58;;;;;;;58.17;23.23;;;-7.20;99.90;;;;;;5113685;27;20054;-81
2022/12/18 07:10:24;;;;;;;61.03;23.52;;;-7.20;99.90;;;;;;5095507;28;20065;-82
2022/12/18 07:12:49;;;;;;;58.20;23.25;;;-7.30;99.90;;;;;;5130215;27;20138;-82
2022/12/18 07:15:15;;;;;;;61.85;23.65;;;-7.30;99.90;;;;;;5110732;28;20047;-83
2022/12/18 07:17:41;;;;;;;58.42;21.98;;;-7.40;99.90;;;;;;5079039;27;20093;-82
2022/12/18 07:20:07;;;;;;;62.90;23.02;;;-7.40;99.90;;;;;;5100610;28;20085;-82
2022/12/18 07:22:33;;;;;;;60.25;23.42;;;-7.40;99.90;;;;;;5106260;28;20043;-82
2022/12/18 07:24:58;;;;;;;61.65;23.42;;;-7.50;99.90;;;;;;5107907;27;20035;-81
2022/12/18 07:27:24;;;;;;;60.00;22.02;;;-7.50;99.90;;;;;;5096071;27;20047;-82
2022/12/18 07:29:50;;;;;;;59.38;24.35;;;-7.50;99.90;;;;;;5114664;27;20080;-82
2022/12/18 07:32:15;;;;;;;61.25;23.50;;;-7.50;99.90;;;;;;5105112;28;20070;-81
2022/12/18 07:34:41;;;;;;;65.15;23.00;;;-7.40;99.90;;;;;;5112446;27;20043;-81
2022/12/18 07:37:07;;;;;;;57.65;22.27;;;-7.40;99.90;;;;;;5097314;27;20110;-81
2022/12/18 07:39:33;;;;;;;62.78;23.50;;;-7.40;99.90;;;;;;5110473;28;20051;-81
2022/12/18 07:44:53;;;;;;;53.67;22.40;;;-7.40;99.90;;;;;;5078934;27;20101;-82
2022/12/18 07:47:19;;;;;;;64.45;22.70;;;-7.40;99.90;;;;;;5101234;27;20085;-82
2022/12/18 07:49:44;;;;;;;52.25;21.63;;;-7.30;99.90;;;;;;5099531;27;20052;-82
2022/12/18 07:52:12;;;;;;;54.20;22.85;;;-7.30;99.90;;;;;;5110270;28;20080;-82
2022/12/18 07:54:38;;;;;;;57.22;22.98;;;-7.20;99.90;;;;;;5106951;27;20058;-81
2022/12/18 07:57:03;;;;;;;54.83;22.08;;;-7.20;99.90;;;;;;5108359;27;20134;-82
2022/12/18 07:59:29;;;;;;;54.15;22.73;;;-7.10;99.90;;;;;;5098924;27;20193;-80
2022/12/18 08:01:55;;;;;;;49.45;20.20;;;-7.10;99.90;;;;;;5126940;27;20050;-81
2022/12/18 08:04:21;;;;;;;49.03;20.08;;;-7.10;99.90;;;;;;5111747;27;20055;-82
2022/12/18 08:06:46;;;;;;;50.13;21.65;;;-7.00;99.90;;;;;;5114047;27;20047;-81
2022/12/18 08:09:12;;;;;;;50.60;20.98;;;-7.00;99.90;;;;;;5128754;27;20054;-81
2022/12/18 08:11:38;;;;;;;49.53;21.40;;;-6.90;99.90;;;;;;5108839;27;20058;-82
2022/12/18 08:14:03;;;;;;;53.28;21.60;;;-6.90;99.90;;;;;;5094697;27;20058;-82
2022/12/18 08:16:30;;;;;;;48.70;21.42;;;-6.80;99.90;;;;;;5117451;27;20547;-82
2022/12/18 08:18:56;;;;;;;47.75;21.10;;;-6.70;99.90;;;;;;5116963;27;20038;-81
2022/12/18 08:21:27;;;;;;;55.10;21.13;;;-6.70;99.90;;;;;;5131880;27;20038;-82
2022/12/18 08:23:55;;;;;;;43.75;19.60;;;-6.60;99.90;;;;;;5116582;27;20089;-82
2022/12/18 08:26:22;;;;;;;48.35;20.95;;;-6.60;99.90;;;;;;5134281;27;20045;-82
2022/12/18 08:28:48;;;;;;;51.55;20.48;;;-6.50;1.00;;;;;;5132912;27;20046;-81
2022/12/18 08:31:14;;;;;;;49.40;21.38;;;-6.40;1.00;;;;;;5102255;27;20043;-81
2022/12/18 08:33:40;;;;;;;42.72;19.50;;;-6.40;1.00;;;;;;5110375;27;20482;-81
2022/12/18 08:36:08;;;;;;;39.22;19.50;;;-6.30;1.00;;;;;;5117259;27;20142;-81
2022/12/18 08:38:33;;;;;;;44.10;20.13;;;-6.20;1.00;;;;;;5133392;27;20035;-82
2022/12/18 08:41:05;;;;;;;45.08;19.90;;;-6.10;1.00;;;;;;5108800;27;20400;-81
2022/12/18 08:46:15;;;;;;;41.67;19.88;;;-6.00;1.00;;;;;;5108740;27;20093;-81
2022/12/18 08:48:40;;;;;;;39.55;17.63;;;-5.80;1.00;;;;;;5106921;27;20075;-82
2022/12/18 08:51:06;;;;;;;36.10;17.30;;;-5.80;1.00;;;;;;5110660;27;20183;-81
2022/12/18 08:53:32;;;;;;;37.10;17.05;;;-5.70;1.00;;;;;;5100020;27;20499;-82
2022/12/18 08:55:57;;;;;;;36.67;16.13;;;-5.70;1.00;;;;;;5121344;27;20169;-82
2022/12/18 08:58:23;;;;;;;36.20;17.00;;;-5.70;1.00;;;;;;5114574;27;20051;-85
2022/12/18 09:00:49;;;;;;;39.08;17.40;;;-5.60;1.00;;;;;;5134180;27;20134;-82
2022/12/18 09:03:17;;;;;;;37.97;17.08;;;-5.60;1.00;;;;;;5115077;27;20053;-81
2022/12/18 09:05:43;;;;;;;33.03;16.15;;;-5.60;1.00;;;;;;5132672;27;20057;-81
2022/12/18 09:08:09;;;;;;;37.50;17.40;;;-5.50;1.00;;;;;;5131715;27;20051;-81
2022/12/18 09:10:42;;;;;;;49.92;22.83;;;-5.50;1.00;;;;;;5116188;27;20103;-81
2022/12/18 09:13:07;;;;;;;40.30;18.50;;;-5.40;1.00;;;;;;5112563;27;20551;-81
2022/12/18 09:15:33;;;;;;;37.92;18.02;;;-5.40;1.00;;;;;;5113689;27;20047;-82
2022/12/18 09:17:59;;;;;;;36.88;19.35;;;-5.30;1.00;;;;;;5104402;27;20091;-81
2022/12/18 09:20:25;;;;;;;31.70;16.10;;;-5.20;1.00;;;;;;5120452;27;20058;-82
2022/12/18 09:22:50;;;;;;;31.08;15.35;;;-5.10;1.00;;;;;;5113866;28;20043;-84
2022/12/18 09:25:16;;;;;;;30.42;15.55;;;-5.00;1.00;;;;;;5116657;27;20045;-82
2022/12/18 09:27:42;;;;;;;31.38;16.05;;;-5.00;1.00;;;;;;5078107;28;20043;-81
2022/12/18 09:30:08;;;;;;;31.05;16.02;;;-4.90;1.00;;;;;;5089038;28;20043;-81
2022/12/18 09:32:34;;;;;;;30.95;15.68;;;-4.90;1.00;;;;;;5128311;28;20377;-81
2022/12/18 09:34:59;;;;;;;31.45;15.80;;;-4.70;1.00;;;;;;5111036;27;20054;-81
2022/12/18 09:37:25;;;;;;;23.73;13.57;;;-4.60;1.00;;;;;;5120313;27;20043;-84
2022/12/18 09:39:51;;;;;;;27.58;14.05;;;-4.50;1.00;;;;;;5086006;27;20050;-82
2022/12/18 09:42:23;;;;;;;28.10;14.55;;;-4.30;1.00;;;;;;5103461;27;20080;-81
2022/12/18 09:44:54;;;;;;;27.33;13.65;;;-4.20;1.00;;;;;;5119828;27;20650;-82
2022/12/18 09:47:30;;;;;;;30.23;14.75;;;-4.10;1.00;;;;;;5125039;27;20137;-82
2022/12/18 09:50:03;;;;;;;28.95;13.85;;;-4.00;1.00;;;;;;5136838;27;20057;-82
2022/12/18 09:52:46;;;;;;;23.77;12.05;;;-3.80;1.00;;;;;;5127554;27;20039;-84
2022/12/18 09:55:24;;;;;;;21.58;12.52;;;-3.70;1.00;;;;;;5121407;27;20050;-81
2022/12/18 09:57:54;;;;;;;23.58;12.55;;;-3.60;1.00;;;;;;5111461;27;20051;-81
2022/12/18 10:00:22;;;;;;;20.83;11.80;;;-3.50;1.00;;;;;;5116889;27;20471;-85
2022/12/18 10:02:51;;;;;;;21.63;11.70;;;-3.40;1.00;;;;;;5109471;27;20479;-81
2022/12/18 10:05:23;;;;;;;20.30;10.73;;;-3.40;1.00;;;;;;5100606;27;20122;-81
2022/12/18 10:08:03;;;;;;;19.30;11.02;;;-3.40;1.00;;;;;;5084050;27;20127;-81
2022/12/18 10:10:41;;;;;;;20.50;9.80;;;-3.40;1.00;;;;;;5130121;27;20091;-82
2022/12/18 10:13:35;;;;;;;15.13;7.80;;;-3.40;1.00;;;;;;5108006;27;20042;-81
2022/12/18 10:16:29;;;;;;;16.40;8.25;;;-3.40;1.00;;;;;;5132376;27;20144;-82
2022/12/18 10:19:01;;;;;;;14.23;8.07;;;-3.40;1.00;;;;;;5114578;27;20039;-81
2022/12/18 10:22:08;;;;;;;14.32;8.68;;;-3.40;1.00;;;;;;5120077;27;20112;-82
2022/12/18 10:24:41;;;;;;;12.85;7.32;;;-3.40;1.00;;;;;;5110172;27;20051;-84
2022/12/18 10:27:15;;;;;;;14.18;7.47;;;-3.40;1.00;;;;;;5115435;27;20224;-81
2022/12/18 10:29:42;;;;;;;13.82;7.30;;;-3.40;1.00;;;;;;5115994;27;20050;-81
2022/12/18 10:32:17;;;;;;;16.00;7.10;;;-3.30;1.00;;;;;;5112075;27;20055;-82
2022/12/18 10:34:52;;;;;;;16.48;7.53;;;-3.20;1.00;;;;;;5130132;27;20058;-81
2022/12/18 10:37:19;;;;;;;18.27;8.23;;;-3.30;1.00;;;;;;5131481;27;20092;-81
2022/12/18 10:40:04;;;;;;;14.02;8.40;;;-3.20;1.00;;;;;;5115482;27;20043;-82
2022/12/18 10:42:29;;;;;;;17.92;9.60;;;-3.20;1.00;;;;;;5124217;27;20081;-81
2022/12/18 10:45:12;;;;;;;22.55;11.25;;;-3.10;1.00;;;;;;5117199;27;20094;-82
2022/12/18 10:47:46;;;;;;;20.67;10.80;;;-3.00;1.00;;;;;;5123001;27;20055;-84
2022/12/18 10:50:22;;;;;;;19.15;11.27;;;-2.90;1.00;;;;;;5112980;27;20103;-81
2022/12/18 10:52:55;;;;;;;24.67;12.25;;;-2.90;1.00;;;;;;5112211;27;20065;-83
2022/12/18 10:55:21;;;;;;;32.08;14.88;;;-2.80;1.00;;;;;;5119693;27;20395;-83
2022/12/18 10:57:47;;;;;;;32.20;15.00;;;-2.70;1.00;;;;;;5133375;27;20054;-81
2022/12/18 11:00:30;;;;;;;40.20;16.40;;;-2.70;1.00;;;;;;5112155;27;20082;-84
2022/12/18 11:02:57;;;;;;;43.30;18.27;;;-2.60;1.00;;;;;;5130616;27;20390;-81
2022/12/18 11:05:30;;;;;;;33.05;16.08;;;-2.50;1.00;;;;;;5108991;27;20047;-82
2022/12/18 11:07:57;;;;;;;26.92;13.90;;;-2.50;1.00;;;;;;5112058;27;20469;-82
2022/12/18 11:10:33;;;;;;;29.63;15.13;;;-2.40;1.00;;;;;;5117557;27;20050;-84
2022/12/18 11:13:20;;;;;;;19.48;10.82;;;-2.40;1.00;;;;;;5121794;27;20051;-82
2022/12/18 11:15:46;;;;;;;18.67;10.07;;;-2.40;1.00;;;;;;5139370;27;20049;-81
2022/12/18 11:18:30;;;;;;;36.03;24.77;;;-2.40;1.00;;;;;;5094320;27;20047;-82
2022/12/18 11:21:07;;;;;;;25.75;16.02;;;-2.30;1.00;;;;;;5135424;27;20384;-80
2022/12/18 11:23:34;;;;;;;17.25;10.38;;;-2.20;1.00;;;;;;5102461;27;20050;-83
2022/12/18 11:26:05;;;;;;;26.67;14.63;;;-2.20;1.00;;;;;;5118791;27;20129;-80
2022/12/18 11:29:07;;;;;;;25.17;13.85;;;-2.20;1.00;;;;;;5097759;27;20051;-79
2022/12/18 11:31:33;;;;;;;27.15;14.88;;;-2.10;1.00;;;;;;5112067;27;20050;-83
2022/12/18 11:34:20;;;;;;;36.88;19.45;;;-2.10;3.00;;;;;;5116118;27;20095;-81
2022/12/18 11:36:47;;;;;;;25.85;13.20;;;-2.10;8.30;;;;;;5133536;27;20053;-83
2022/12/18 11:39:41;;;;;;;20.75;12.95;;;-2.00;8.70;;;;;;5081039;27;20096;-81
2022/12/18 11:42:41;;;;;;;20.15;11.65;;;-2.00;6.60;;;;;;5145641;27;20039;-82
2022/12/18 11:45:13;;;;;;;18.60;11.35;;;-2.00;7.50;;;;;;5130075;27;20043;-81
2022/12/18 11:47:48;;;;;;;16.52;9.90;;;-2.00;10.60;;;;;;5118024;27;20391;-81
2022/12/18 11:50:35;;;;;;;17.02;9.05;;;-2.00;11.50;;;;;;5117413;27;20126;-80
2022/12/18 11:53:02;;;;;;;14.40;8.70;;;-2.00;11.80;;;;;;5120080;27;20071;-82
2022/12/18 11:55:49;;;;;;;14.55;9.13;;;-2.00;9.00;;;;;;5113747;27;20496;-82
2022/12/18 11:58:53;;;;;;;14.95;9.05;;;-1.90;6.80;;;;;;5130414;27;20069;-81
2022/12/18 12:01:41;;;;;;;14.80;9.27;;;-1.90;6.50;;;;;;5080268;27;20475;-80
2022/12/18 12:04:16;;;;;;;13.60;8.60;;;-1.90;10.30;;;;;;5127896;27;20031;-85
2022/12/18 12:07:14;;;;;;;15.07;9.15;;;-1.80;14.40;;;;;;5118549;27;20043;-82
2022/12/18 12:09:56;;;;;;;35.25;17.17;;;-1.80;13.00;;;;;;5115733;27;20049;-81
2022/12/18 12:12:59;;;;;;;15.70;9.38;;;-1.80;16.00;;;;;;5121915;27;20475;-83
2022/12/18 12:15:53;;;;;;;21.25;8.85;;;-1.70;16.60;;;;;;5106447;27;20055;-87
2022/12/18 12:18:41;;;;;;;16.25;9.32;;;-1.70;13.30;;;;;;5124606;27;20062;-82
2022/12/18 12:21:35;;;;;;;31.98;14.65;;;-1.70;11.10;;;;;;5120303;27;20088;-81
2022/12/18 12:24:26;;;;;;;31.05;15.10;;;-1.70;5.70;;;;;;5128359;27;20046;-82
2022/12/18 12:27:13;;;;;;;18.40;11.45;;;-1.60;7.80;;;;;;5111246;27;20099;-85
2022/12/18 12:29:53;;;;;;;15.77;9.55;;;-1.60;9.40;;;;;;5102093;27;20039;-82
2022/12/18 12:32:43;;;;;;;19.00;10.63;;;-1.60;7.50;;;;;;5114201;27;20480;-82
2022/12/18 12:35:37;;;;;;;21.33;10.63;;;-1.50;3.10;;;;;;5136990;27;20038;-82
2022/12/18 12:38:27;;;;;;;14.20;9.38;;;-1.50;1.00;;;;;;5096806;27;20126;-82
2022/12/18 12:43:12;;;;;;;15.65;9.15;;;-1.50;1.00;;;;;;5114803;27;20051;-85
2022/12/18 12:43:55;;;;;;;17.73;9.63;;;-1.50;1.00;;;;;;5118372;27;20047;-85
2022/12/18 12:46:22;;;;;;;12.88;8.55;;;-1.40;1.00;;;;;;5107127;27;20043;-82
2022/12/18 12:49:01;;;;;;;15.40;7.85;;;-1.40;1.00;;;;;;5112180;27;20511;-84
2022/12/18 12:51:33;;;;;;;11.40;7.45;;;-1.40;1.00;;;;;;5116597;27;20050;-81
2022/12/18 12:54:02;;;;;;;13.02;8.13;;;-1.30;1.00;;;;;;5116396;27;20038;-81
2022/12/18 12:56:44;;;;;;;13.10;8.20;;;-1.30;1.00;;;;;;5126207;27;20380;-81
2022/12/18 12:59:17;;;;;;;18.35;9.40;;;-1.30;1.00;;;;;;5110658;27;20079;-83
2022/12/18 13:02:05;;;;;;;19.85;9.52;;;-1.20;1.00;;;;;;5113865;27;20093;-81
2022/12/18 13:04:49;;;;;;;13.30;7.25;;;-1.20;1.00;;;;;;5105074;27;20066;-81